Time;durP1;ratioP1;P1;durP2;ratioP2;P2;SDS_P1;SDS_P2;PMS_P1;PMS_P2;Temp;Humidity;BMP_temperature;BMP_pressure;BME280_temperature;BME280_humidity;BME280_pressure;Samples;Min_cycle;Max_cycle;Signal;HPM_P1;HPM_P2
2023/12/10 00:00:21;;;;;;;56.43;24.50;;;0.50;99.90;;;;;;5076264;28;20501;-83
2023/12/10 00:02:48;;;;;;;62.60;25.10;;;0.60;99.90;;;;;;5082976;28;20447;-83
2023/12/10 00:05:15;;;;;;;45.93;22.73;;;0.60;99.90;;;;;;5084193;28;20470;-83
2023/12/10 00:07:42;;;;;;;76.50;29.97;;;0.60;99.90;;;;;;5074973;28;20475;-82
2023/12/10 00:10:11;;;;;;;81.97;31.77;;;0.50;99.90;;;;;;5081654;28;20432;-83
2023/12/10 00:12:38;;;;;;;37.87;20.30;;;0.40;99.90;;;;;;5074988;28;20466;-82
2023/12/10 00:15:06;;;;;;;36.17;21.20;;;0.40;99.90;;;;;;5083277;28;20444;-83
2023/12/10 00:17:34;;;;;;;59.20;27.20;;;0.50;99.90;;;;;;5081520;28;20453;-83
2023/12/10 00:20:01;;;;;;;51.67;25.47;;;0.50;99.90;;;;;;5070940;28;20514;-82
2023/12/10 00:22:28;;;;;;;116.23;37.93;;;0.50;99.90;;;;;;5071651;28;20777;-82
2023/12/10 00:24:55;;;;;;;90.30;31.97;;;0.50;99.90;;;;;;5084781;28;20453;-83
2023/12/10 00:27:23;;;;;;;54.37;25.67;;;0.40;99.90;;;;;;5084339;28;20472;-83
2023/12/10 00:29:50;;;;;;;39.37;18.60;;;0.50;99.90;;;;;;5078934;28;20477;-81
2023/12/10 00:32:17;;;;;;;31.40;19.90;;;0.40;99.90;;;;;;5087861;28;20481;-81
2023/12/10 00:34:45;;;;;;;34.60;19.53;;;0.40;99.90;;;;;;5079220;28;20970;-81
2023/12/10 00:37:12;;;;;;;34.83;19.80;;;0.50;99.90;;;;;;5080829;28;20953;-82
2023/12/10 00:39:39;;;;;;;32.47;18.77;;;0.40;99.90;;;;;;5079268;28;20970;-81
2023/12/10 00:42:06;;;;;;;27.67;16.83;;;0.30;99.90;;;;;;5079557;28;20920;-82
2023/12/10 00:44:35;;;;;;;29.23;16.23;;;0.30;99.90;;;;;;5073769;28;20463;-81
2023/12/10 00:47:02;;;;;;;28.67;17.00;;;0.30;99.90;;;;;;5081900;28;20471;-81
2023/12/10 00:49:29;;;;;;;32.53;18.60;;;0.30;99.90;;;;;;5072959;28;20454;-81
2023/12/10 00:51:56;;;;;;;26.40;16.77;;;0.30;99.90;;;;;;5075422;28;20454;-81
2023/12/10 00:54:24;;;;;;;23.50;16.90;;;0.40;99.90;;;;;;5076702;28;20459;-82
2023/12/10 00:56:51;;;;;;;30.93;17.67;;;0.40;99.90;;;;;;5074332;28;20523;-81
2023/12/10 00:59:18;;;;;;;24.83;15.27;;;0.50;99.90;;;;;;5070439;28;20950;-82
2023/12/10 01:01:46;;;;;;;27.00;17.07;;;0.40;99.90;;;;;;5075131;28;20471;-81
2023/12/10 01:04:14;;;;;;;30.47;17.30;;;0.40;99.90;;;;;;5086985;28;20438;-82
2023/12/10 01:06:41;;;;;;;28.07;16.53;;;0.50;99.90;;;;;;5068184;28;20474;-82
2023/12/10 01:09:09;;;;;;;25.33;15.60;;;0.60;99.90;;;;;;5076982;28;20439;-81
2023/12/10 01:11:36;;;;;;;29.20;16.03;;;0.60;99.90;;;;;;5095432;28;20463;-81
2023/12/10 01:14:03;;;;;;;24.97;16.10;;;0.50;99.90;;;;;;5071685;28;20443;-82
2023/12/10 01:16:31;;;;;;;25.80;16.63;;;0.60;99.90;;;;;;5067442;28;20467;-82
2023/12/10 01:18:59;;;;;;;26.70;14.00;;;0.60;99.90;;;;;;5079749;28;20478;-82
2023/12/10 01:21:26;;;;;;;30.60;17.73;;;0.60;99.90;;;;;;5075797;28;20506;-82
2023/12/10 01:23:55;;;;;;;27.00;18.23;;;0.60;99.90;;;;;;5068378;28;20466;-82
2023/12/10 01:26:23;;;;;;;21.13;14.80;;;0.60;99.90;;;;;;5077825;28;21132;-82
2023/12/10 01:28:51;;;;;;;26.00;15.97;;;0.60;99.90;;;;;;5073636;28;20464;-82
2023/12/10 01:31:18;;;;;;;24.27;16.40;;;0.60;99.90;;;;;;5074427;28;20810;-82
2023/12/10 01:33:45;;;;;;;24.57;16.17;;;0.60;99.90;;;;;;5066188;28;20460;-82
2023/12/10 01:36:23;;;;;;;24.90;14.20;;;0.60;99.90;;;;;;5079551;28;20454;-82
2023/12/10 01:38:50;;;;;;;18.87;14.27;;;0.70;99.90;;;;;;5065710;28;20475;-82
2023/12/10 01:41:19;;;;;;;22.57;13.57;;;0.70;99.90;;;;;;5070550;28;21003;-81
2023/12/10 01:43:46;;;;;;;21.30;13.77;;;0.70;99.90;;;;;;5073139;28;20564;-81
2023/12/10 01:46:14;;;;;;;25.10;14.80;;;0.70;99.90;;;;;;5083738;28;20654;-81
2023/12/10 01:48:43;;;;;;;22.50;15.53;;;0.70;99.90;;;;;;5082182;28;20810;-81
2023/12/10 01:51:11;;;;;;;47.37;20.33;;;0.80;99.90;;;;;;5076344;28;20483;-80
2023/12/10 01:53:40;;;;;;;98.77;30.73;;;0.90;99.90;;;;;;5082904;28;20443;-81
2023/12/10 01:56:09;;;;;;;124.67;39.43;;;0.90;99.90;;;;;;5083978;28;20958;-81
2023/12/10 01:58:38;;;;;;;210.77;50.47;;;0.90;99.90;;;;;;5094382;28;20577;-80
2023/12/10 02:01:07;;;;;;;81.73;30.10;;;0.90;99.90;;;;;;5080553;28;20625;-80
2023/12/10 02:03:34;;;;;;;270.07;62.20;;;0.80;99.90;;;;;;5065478;28;20475;-81
2023/12/10 02:06:02;;;;;;;244.27;54.43;;;0.80;99.90;;;;;;5084183;28;20455;-80
2023/12/10 02:08:29;;;;;;;64.70;25.23;;;0.70;99.90;;;;;;5078976;28;20455;-80
2023/12/10 02:10:58;;;;;;;82.97;26.40;;;0.70;99.90;;;;;;5067200;28;20560;-81
2023/12/10 02:13:26;;;;;;;30.77;15.33;;;0.70;99.90;;;;;;5079403;28;20475;-81
2023/12/10 02:15:53;;;;;;;29.33;16.63;;;0.70;99.90;;;;;;5069408;28;20471;-81
2023/12/10 02:18:20;;;;;;;19.03;14.03;;;0.70;99.90;;;;;;5073692;28;20501;-81
2023/12/10 02:20:48;;;;;;;24.33;14.10;;;0.80;99.90;;;;;;5066993;28;20966;-79
2023/12/10 02:23:26;;;;;;;21.83;14.63;;;0.90;99.90;;;;;;5066874;28;20560;-80
2023/12/10 02:25:55;;;;;;;22.90;15.77;;;0.90;99.90;;;;;;5067618;28;20439;-80
2023/12/10 02:28:22;;;;;;;26.87;16.00;;;0.80;99.90;;;;;;5084324;28;20443;-80
2023/12/10 02:30:50;;;;;;;21.07;13.90;;;0.80;99.90;;;;;;5069253;28;20464;-81
2023/12/10 02:33:17;;;;;;;20.50;14.40;;;0.80;99.90;;;;;;5069656;28;20835;-81
2023/12/10 02:35:44;;;;;;;21.70;15.10;;;0.80;99.90;;;;;;5070470;28;20791;-81
2023/12/10 02:38:11;;;;;;;18.60;13.27;;;0.80;99.90;;;;;;5069211;28;20448;-81
2023/12/10 02:40:38;;;;;;;26.50;16.43;;;0.80;99.90;;;;;;5075506;28;20492;-81
2023/12/10 02:43:07;;;;;;;105.87;28.87;;;0.70;99.90;;;;;;5075723;28;20458;-81
2023/12/10 02:45:34;;;;;;;149.10;37.77;;;0.60;99.90;;;;;;5081488;28;20488;-80
2023/12/10 02:48:01;;;;;;;95.43;27.23;;;0.60;99.90;;;;;;5063115;28;20447;-83
2023/12/10 02:50:28;;;;;;;37.70;17.87;;;0.50;99.90;;;;;;5074234;28;20455;-82
2023/12/10 02:52:55;;;;;;;31.40;15.70;;;0.60;99.90;;;;;;5068833;28;20483;-82
2023/12/10 02:55:22;;;;;;;26.40;15.70;;;0.60;99.90;;;;;;5073140;28;20562;-82
2023/12/10 02:57:49;;;;;;;21.17;13.33;;;0.60;99.90;;;;;;5073524;28;20439;-82
2023/12/10 03:00:18;;;;;;;21.70;14.07;;;0.60;99.90;;;;;;5067624;28;20495;-82
2023/12/10 03:02:45;;;;;;;16.30;13.67;;;0.70;99.90;;;;;;5067918;28;20914;-82
2023/12/10 03:05:12;;;;;;;14.93;12.80;;;0.90;99.90;;;;;;5069362;28;20459;-82
2023/12/10 03:07:40;;;;;;;15.67;12.40;;;0.80;99.90;;;;;;5082551;28;20450;-82
2023/12/10 03:10:07;;;;;;;19.67;12.67;;;0.90;99.90;;;;;;5070955;28;20428;-82
2023/12/10 03:12:35;;;;;;;18.97;13.17;;;0.90;99.90;;;;;;5080498;28;20438;-83
2023/12/10 03:15:02;;;;;;;16.53;11.50;;;0.90;99.90;;;;;;5076816;28;20452;-83
2023/12/10 03:17:30;;;;;;;16.60;13.47;;;0.80;99.90;;;;;;5069656;28;20851;-83
2023/12/10 03:19:57;;;;;;;13.27;11.80;;;0.90;99.90;;;;;;5077781;28;20459;-81
2023/12/10 03:22:24;;;;;;;18.33;11.83;;;1.00;99.90;;;;;;5068434;28;20447;-80
2023/12/10 03:24:51;;;;;;;20.07;12.20;;;1.00;99.90;;;;;;5066183;28;20479;-81
2023/12/10 03:27:19;;;;;;;18.20;12.53;;;1.10;99.90;;;;;;5071531;28;20454;-80
2023/12/10 03:29:46;;;;;;;16.90;14.00;;;1.10;99.90;;;;;;5078939;28;20588;-81
2023/12/10 03:32:13;;;;;;;18.57;13.27;;;1.10;99.90;;;;;;5074680;28;20450;-80
2023/12/10 03:34:42;;;;;;;17.53;12.90;;;1.00;99.90;;;;;;5075115;28;20445;-82
2023/12/10 03:37:09;;;;;;;15.10;12.10;;;1.00;99.90;;;;;;5074220;28;20452;-82
2023/12/10 03:39:36;;;;;;;15.10;11.00;;;1.00;99.90;;;;;;5085976;28;20445;-82
2023/12/10 03:42:04;;;;;;;15.37;11.40;;;1.00;99.90;;;;;;5074811;28;20486;-81
2023/12/10 03:44:31;;;;;;;15.60;12.27;;;1.00;99.90;;;;;;5075510;28;20532;-81
2023/12/10 03:47:01;;;;;;;14.13;10.30;;;1.00;99.90;;;;;;5080003;28;20871;-82
2023/12/10 03:49:28;;;;;;;13.73;11.20;;;0.90;99.90;;;;;;5075335;28;20820;-82
2023/12/10 03:51:57;;;;;;;16.77;12.20;;;1.00;99.90;;;;;;5075370;28;20443;-82
2023/12/10 03:54:24;;;;;;;13.27;10.00;;;0.90;99.90;;;;;;5084322;28;20471;-82
2023/12/10 03:56:51;;;;;;;18.27;12.27;;;0.90;99.90;;;;;;5095047;28;20485;-82
2023/12/10 03:59:18;;;;;;;13.00;10.03;;;1.00;99.90;;;;;;5078726;28;20463;-82
2023/12/10 04:01:45;;;;;;;16.03;11.90;;;1.00;99.90;;;;;;5072255;28;20485;-82
2023/12/10 04:04:13;;;;;;;16.00;11.70;;;1.00;99.90;;;;;;5086064;28;20927;-82
2023/12/10 04:06:40;;;;;;;12.67;10.47;;;1.00;99.90;;;;;;5086845;28;20443;-81
2023/12/10 04:09:09;;;;;;;19.77;12.33;;;0.90;99.90;;;;;;5085546;28;20895;-82
2023/12/10 04:11:36;;;;;;;16.13;12.20;;;0.90;99.90;;;;;;5071863;28;20477;-82
2023/12/10 04:14:04;;;;;;;19.67;12.17;;;0.90;99.90;;;;;;5082142;28;20757;-82
2023/12/10 04:16:31;;;;;;;14.57;9.80;;;1.00;99.90;;;;;;5071891;28;20459;-81
2023/12/10 04:18:58;;;;;;;13.40;10.13;;;1.30;99.90;;;;;;5081740;28;20623;-81
2023/12/10 04:21:26;;;;;;;9.03;8.00;;;1.80;99.90;;;;;;5082777;28;20576;-81
2023/12/10 04:23:53;;;;;;;9.27;6.97;;;2.10;99.90;;;;;;5074798;28;20463;-81
2023/12/10 04:26:22;;;;;;;7.80;4.50;;;2.30;99.90;;;;;;5085124;28;20443;-81
2023/12/10 04:28:49;;;;;;;9.80;5.90;;;2.40;99.90;;;;;;5083664;28;20446;-81
2023/12/10 04:31:17;;;;;;;7.63;5.57;;;2.50;99.90;;;;;;5069827;28;20474;-81
2023/12/10 04:33:45;;;;;;;3.43;3.10;;;2.70;99.90;;;;;;5078254;28;20810;-81
2023/12/10 04:36:13;;;;;;;2.20;1.80;;;2.90;99.90;;;;;;5086412;28;20447;-81
2023/12/10 04:38:41;;;;;;;2.70;1.50;;;3.10;99.90;;;;;;5080348;28;21147;-81
2023/12/10 04:41:08;;;;;;;1.63;1.27;;;3.50;99.90;;;;;;5072009;28;20487;-81
2023/12/10 04:43:37;;;;;;;0.50;0.50;;;3.70;99.90;;;;;;5077526;28;20450;-81
2023/12/10 04:46:04;;;;;;;2.60;2.03;;;3.80;99.90;;;;;;5077493;28;20502;-81
2023/12/10 04:48:31;;;;;;;7.70;6.27;;;3.90;99.90;;;;;;5078319;28;20450;-81
2023/12/10 04:50:59;;;;;;;14.10;6.77;;;3.20;99.90;;;;;;5077627;28;20464;-80
2023/12/10 04:53:26;;;;;;;8.80;4.93;;;3.10;99.90;;;;;;5077936;28;20481;-81
2023/12/10 04:55:53;;;;;;;6.77;4.23;;;3.50;99.90;;;;;;5082556;28;20475;-81
2023/12/10 04:58:20;;;;;;;10.10;4.50;;;3.80;99.90;;;;;;5078791;28;20463;-81
2023/12/10 05:00:49;;;;;;;4.00;2.37;;;3.90;99.90;;;;;;5070748;28;20575;-81
2023/12/10 05:03:16;;;;;;;4.63;2.60;;;4.10;99.90;;;;;;5076990;28;20470;-81
2023/12/10 05:05:43;;;;;;;5.30;4.00;;;4.20;99.90;;;;;;5077452;28;20446;-81
2023/12/10 05:08:10;;;;;;;4.83;4.10;;;4.00;99.90;;;;;;5071574;28;20525;-81
2023/12/10 05:10:37;;;;;;;4.60;2.90;;;4.30;99.90;;;;;;5070361;28;20451;-81
2023/12/10 05:13:04;;;;;;;6.60;3.67;;;4.20;99.90;;;;;;5074699;28;20444;-81
2023/12/10 05:15:31;;;;;;;3.43;2.60;;;4.20;99.90;;;;;;5078004;28;20459;-81
2023/12/10 05:18:02;;;;;;;3.20;3.00;;;4.20;99.90;;;;;;5078146;28;20467;-81
2023/12/10 05:20:30;;;;;;;3.03;1.23;;;4.30;99.90;;;;;;5082836;28;20549;-81
2023/12/10 05:22:58;;;;;;;2.30;1.80;;;4.40;99.90;;;;;;5077892;28;20471;-82
2023/12/10 05:25:27;;;;;;;4.30;3.20;;;4.40;99.90;;;;;;5072121;28;20440;-82
2023/12/10 05:27:54;;;;;;;2.83;2.30;;;4.30;99.90;;;;;;5080049;28;20458;-82
2023/12/10 05:30:21;;;;;;;2.10;1.60;;;4.30;99.90;;;;;;5069348;28;20464;-82
2023/12/10 05:32:48;;;;;;;2.23;1.70;;;4.30;99.90;;;;;;5073437;28;20839;-81
2023/12/10 05:35:17;;;;;;;2.20;1.07;;;4.20;99.90;;;;;;5081547;28;20482;-83
2023/12/10 05:37:44;;;;;;;1.93;1.33;;;4.20;99.90;;;;;;5079345;28;20447;-82
2023/12/10 05:40:12;;;;;;;1.40;1.30;;;4.20;99.90;;;;;;5072595;28;20666;-82
2023/12/10 05:42:39;;;;;;;2.17;1.40;;;4.20;99.90;;;;;;5066612;28;20893;-82
2023/12/10 05:45:07;;;;;;;2.53;1.73;;;4.20;99.90;;;;;;5082175;28;20556;-83
2023/12/10 05:47:34;;;;;;;2.00;1.33;;;4.10;99.90;;;;;;5078349;28;20455;-83
2023/12/10 05:50:01;;;;;;;2.50;1.23;;;4.00;99.90;;;;;;5083532;28;20485;-82
2023/12/10 05:52:30;;;;;;;1.13;0.90;;;4.00;99.90;;;;;;5067000;28;20482;-83
2023/12/10 05:54:57;;;;;;;1.57;0.90;;;4.00;99.90;;;;;;5078772;28;20479;-83
2023/12/10 05:57:24;;;;;;;3.13;0.77;;;4.00;99.90;;;;;;5073197;28;20474;-83
2023/12/10 05:59:51;;;;;;;1.40;0.60;;;4.00;99.90;;;;;;5071677;28;20462;-83
2023/12/10 06:02:18;;;;;;;3.83;1.80;;;4.20;99.90;;;;;;5072456;28;20488;-83
2023/12/10 06:04:45;;;;;;;7.43;0.80;;;4.20;99.90;;;;;;5071385;28;20464;-83
2023/12/10 06:07:12;;;;;;;1.50;0.60;;;4.20;99.90;;;;;;5071567;28;20444;-82
2023/12/10 06:09:40;;;;;;;3.80;1.07;;;4.20;99.90;;;;;;5076289;28;20463;-83
2023/12/10 06:12:08;;;;;;;2.70;1.00;;;4.20;99.90;;;;;;5073041;28;20475;-82
2023/12/10 06:14:35;;;;;;;6.90;3.97;;;4.20;99.90;;;;;;5072087;28;20780;-82
2023/12/10 06:17:02;;;;;;;3.17;1.60;;;4.30;99.90;;;;;;5078884;28;21189;-82
2023/12/10 06:19:29;;;;;;;7.93;3.13;;;4.30;99.90;;;;;;5070203;28;20468;-82
2023/12/10 06:21:56;;;;;;;14.33;8.67;;;4.30;99.90;;;;;;5076869;28;20506;-82
2023/12/10 06:24:23;;;;;;;7.70;2.70;;;4.30;99.90;;;;;;5069555;28;20439;-82
2023/12/10 06:26:51;;;;;;;8.77;3.23;;;4.30;99.90;;;;;;5067137;28;20464;-82
2023/12/10 06:29:18;;;;;;;8.63;4.37;;;4.30;99.90;;;;;;5080761;28;20470;-82
2023/12/10 06:31:45;;;;;;;5.23;1.37;;;4.30;99.90;;;;;;5073287;28;20456;-82
2023/12/10 06:34:12;;;;;;;3.80;2.37;;;4.40;99.90;;;;;;5063897;28;20467;-82
2023/12/10 06:36:39;;;;;;;0.73;0.50;;;4.30;99.90;;;;;;5078742;28;20471;-81
2023/12/10 06:39:06;;;;;;;2.20;0.63;;;4.30;99.90;;;;;;5077623;28;20471;-82
2023/12/10 06:41:34;;;;;;;1.37;0.43;;;4.20;99.90;;;;;;5064939;28;20484;-85
2023/12/10 06:44:02;;;;;;;0.53;0.40;;;4.20;99.90;;;;;;5075973;28;20465;-82
2023/12/10 06:46:29;;;;;;;5.17;0.60;;;4.40;99.90;;;;;;5075523;28;20454;-82
2023/12/10 06:48:56;;;;;;;2.93;0.90;;;4.40;99.90;;;;;;5070211;28;20478;-82
2023/12/10 06:51:24;;;;;;;1.77;0.50;;;4.40;99.90;;;;;;5083622;28;20897;-82
2023/12/10 06:53:51;;;;;;;1.63;1.07;;;4.50;99.90;;;;;;5066997;28;20459;-82
2023/12/10 06:56:18;;;;;;;0.90;0.50;;;4.60;99.90;;;;;;5075521;28;20548;-82
2023/12/10 06:58:45;;;;;;;2.10;0.80;;;4.60;99.90;;;;;;5070755;28;20471;-82
2023/12/10 07:01:15;;;;;;;2.63;0.60;;;4.70;99.90;;;;;;5071029;28;20491;-82
2023/12/10 07:03:42;;;;;;;1.40;1.00;;;4.60;99.90;;;;;;5070875;28;20478;-82
2023/12/10 07:06:09;;;;;;;1.17;0.77;;;4.60;99.90;;;;;;5067746;28;20466;-82
2023/12/10 07:08:36;;;;;;;0.70;0.60;;;4.50;99.90;;;;;;5073942;28;20463;-82
2023/12/10 07:11:05;;;;;;;1.33;0.50;;;4.60;99.90;;;;;;5076101;28;20790;-82
2023/12/10 07:13:32;;;;;;;6.67;1.00;;;4.80;99.90;;;;;;5076709;28;20455;-82
2023/12/10 07:15:59;;;;;;;11.10;1.50;;;4.70;99.90;;;;;;5068253;28;20458;-83
2023/12/10 07:18:27;;;;;;;1.00;0.60;;;4.80;99.90;;;;;;5068951;28;20456;-83
2023/12/10 07:20:54;;;;;;;8.70;2.10;;;4.70;99.90;;;;;;5066578;28;22224;-83
2023/12/10 07:23:21;;;;;;;6.27;2.10;;;4.50;99.90;;;;;;5064736;28;21050;-82
2023/12/10 07:25:49;;;;;;;4.63;1.27;;;4.40;99.90;;;;;;5068840;28;20467;-83
2023/12/10 07:28:17;;;;;;;2.20;0.83;;;4.30;99.90;;;;;;5074275;28;20467;-83
2023/12/10 07:30:44;;;;;;;1.83;0.80;;;4.20;99.90;;;;;;5067393;28;20468;-83
2023/12/10 07:33:12;;;;;;;2.50;0.80;;;4.10;99.90;;;;;;5067156;28;20467;-82
2023/12/10 07:35:40;;;;;;;0.80;0.43;;;4.10;99.90;;;;;;5069136;28;20467;-82
2023/12/10 07:38:07;;;;;;;2.53;0.80;;;4.10;99.90;;;;;;5070539;28;20466;-82
2023/12/10 07:40:34;;;;;;;0.93;0.50;;;4.20;99.90;;;;;;5074404;28;20458;-82
2023/12/10 07:43:02;;;;;;;3.73;0.43;;;4.40;99.90;;;;;;5063683;28;20487;-81
2023/12/10 07:45:29;;;;;;;4.10;0.60;;;4.60;99.90;;;;;;5077827;28;20474;-81
2023/12/10 07:47:56;;;;;;;3.03;0.47;;;4.70;99.90;;;;;;5072689;28;20463;-81
2023/12/10 07:50:23;;;;;;;0.87;0.50;;;4.70;99.90;;;;;;5080351;28;20498;-81
2023/12/10 07:52:52;;;;;;;0.60;0.40;;;4.70;99.90;;;;;;5079176;28;20459;-81
2023/12/10 07:55:19;;;;;;;1.83;0.50;;;4.80;99.90;;;;;;5082106;28;21176;-81
2023/12/10 07:57:46;;;;;;;5.00;0.60;;;4.80;99.90;;;;;;5067770;28;20460;-82
2023/12/10 08:00:14;;;;;;;1.13;0.40;;;4.90;99.90;;;;;;5070131;28;21009;-81
2023/12/10 08:02:41;;;;;;;0.80;0.40;;;4.90;99.90;;;;;;5070180;28;20867;-81
2023/12/10 08:05:09;;;;;;;1.30;0.60;;;4.90;99.90;;;;;;5073842;28;20477;-81
2023/12/10 08:07:36;;;;;;;2.23;1.67;;;4.80;99.90;;;;;;5063031;28;20521;-82
2023/12/10 08:10:06;;;;;;;2.07;0.77;;;4.80;99.90;;;;;;5066603;28;20474;-81
2023/12/10 08:12:34;;;;;;;1.40;0.53;;;4.80;99.90;;;;;;5071360;28;20447;-81
2023/12/10 08:15:01;;;;;;;2.40;0.80;;;4.80;99.90;;;;;;5064507;28;20933;-81
2023/12/10 08:17:28;;;;;;;2.07;0.67;;;4.70;99.90;;;;;;5071189;28;20468;-81
2023/12/10 08:19:55;;;;;;;2.63;0.50;;;4.70;99.90;;;;;;5065685;28;20470;-81
2023/12/10 08:22:22;;;;;;;5.80;1.40;;;4.70;99.90;;;;;;5066535;28;20497;-81
2023/12/10 08:24:50;;;;;;;6.40;0.70;;;4.60;99.90;;;;;;5078264;28;20452;-81
2023/12/10 08:27:18;;;;;;;2.00;0.80;;;4.70;99.90;;;;;;5071558;28;20464;-81
2023/12/10 08:29:45;;;;;;;4.10;0.70;;;4.60;99.90;;;;;;5078179;28;20772;-82
2023/12/10 08:32:12;;;;;;;2.00;1.30;;;4.60;99.90;;;;;;5074530;28;20907;-83
2023/12/10 08:34:39;;;;;;;2.83;0.70;;;4.60;99.90;;;;;;5077013;28;20466;-83
2023/12/10 08:37:07;;;;;;;3.10;0.47;;;4.70;99.90;;;;;;5076496;28;20963;-83
2023/12/10 08:39:34;;;;;;;10.43;0.90;;;4.70;99.90;;;;;;5070356;28;20466;-83
2023/12/10 08:42:02;;;;;;;2.57;0.63;;;4.80;99.90;;;;;;5076774;28;20506;-83
2023/12/10 08:44:30;;;;;;;0.60;0.50;;;4.70;99.90;;;;;;5077993;28;20467;-82
2023/12/10 08:46:57;;;;;;;1.47;0.60;;;4.80;99.90;;;;;;5071097;28;20463;-81
2023/12/10 08:49:25;;;;;;;1.07;0.40;;;4.80;99.90;;;;;;5074406;28;20463;-84
2023/12/10 08:51:52;;;;;;;5.40;0.50;;;4.80;99.90;;;;;;5068528;28;21357;-82
2023/12/10 08:54:19;;;;;;;4.90;0.50;;;4.80;99.90;;;;;;5064929;28;20460;-81
2023/12/10 08:56:46;;;;;;;6.03;2.87;;;5.00;99.90;;;;;;5074691;28;20487;-81
2023/12/10 08:59:13;;;;;;;3.53;0.50;;;5.10;99.90;;;;;;5068501;28;20444;-81
2023/12/10 09:01:43;;;;;;;5.23;0.77;;;5.10;99.90;;;;;;5068613;28;20459;-82
2023/12/10 09:04:10;;;;;;;4.03;0.60;;;5.20;99.90;;;;;;5068485;28;20455;-82
2023/12/10 09:06:37;;;;;;;2.57;1.07;;;5.20;99.90;;;;;;5073100;28;21295;-82
2023/12/10 09:09:04;;;;;;;7.27;1.03;;;5.30;99.90;;;;;;5071986;28;20974;-81
2023/12/10 09:11:31;;;;;;;0.80;0.40;;;5.30;99.90;;;;;;5079915;28;20468;-81
2023/12/10 09:13:58;;;;;;;1.80;0.87;;;5.30;99.90;;;;;;5071519;28;20572;-81
2023/12/10 09:16:26;;;;;;;3.90;0.73;;;5.50;99.90;;;;;;5072939;28;20463;-81
2023/12/10 09:18:55;;;;;;;6.60;2.20;;;5.50;99.90;;;;;;5074101;28;20443;-81
2023/12/10 09:21:22;;;;;;;1.80;0.50;;;5.60;99.90;;;;;;5069666;28;20473;-81
2023/12/10 09:23:49;;;;;;;0.70;0.60;;;5.70;99.90;;;;;;5077393;28;20479;-81
2023/12/10 09:26:16;;;;;;;3.93;0.87;;;5.80;99.90;;;;;;5071967;28;20467;-81
2023/12/10 09:28:43;;;;;;;2.97;0.80;;;5.80;99.90;;;;;;5074920;28;20451;-81
2023/12/10 09:31:10;;;;;;;1.93;0.70;;;5.90;99.90;;;;;;5079854;28;20493;-81
2023/12/10 09:33:37;;;;;;;2.73;0.70;;;5.90;99.90;;;;;;5076495;28;20443;-81
2023/12/10 09:36:07;;;;;;;5.70;0.80;;;5.90;99.90;;;;;;5076229;28;20470;-81
2023/12/10 09:38:35;;;;;;;4.83;0.63;;;5.80;99.90;;;;;;5072799;28;20471;-81
2023/12/10 09:41:02;;;;;;;2.30;0.80;;;5.80;99.90;;;;;;5083721;28;20533;-81
2023/12/10 09:43:29;;;;;;;1.10;0.50;;;5.80;99.90;;;;;;5081701;28;20482;-81
2023/12/10 09:45:56;;;;;;;2.27;0.60;;;5.80;99.90;;;;;;5080598;28;20477;-81
2023/12/10 09:48:23;;;;;;;3.40;0.70;;;5.70;99.90;;;;;;5085339;28;20781;-82
2023/12/10 09:50:50;;;;;;;1.57;0.60;;;5.70;99.90;;;;;;5081470;28;20471;-81
2023/12/10 09:53:21;;;;;;;2.50;0.80;;;5.70;99.90;;;;;;5088275;28;20955;-81
2023/12/10 09:55:48;;;;;;;2.90;1.70;;;5.70;99.90;;;;;;5080212;28;20579;-81
2023/12/10 09:58:15;;;;;;;1.13;0.60;;;5.60;99.90;;;;;;5083368;28;20446;-81
2023/12/10 10:00:42;;;;;;;1.67;0.90;;;5.70;99.90;;;;;;5069646;28;20493;-82
2023/12/10 10:03:11;;;;;;;7.47;2.50;;;5.70;99.90;;;;;;5084038;28;20513;-81
2023/12/10 10:05:38;;;;;;;7.53;1.17;;;5.80;99.90;;;;;;5077826;28;20463;-81
2023/12/10 10:08:05;;;;;;;3.87;1.60;;;5.80;99.90;;;;;;5083868;28;20443;-81
2023/12/10 10:10:34;;;;;;;5.20;0.80;;;5.80;99.90;;;;;;5081509;28;20473;-80
2023/12/10 10:13:01;;;;;;;4.07;1.53;;;5.70;99.90;;;;;;5079982;28;20465;-81
2023/12/10 10:15:31;;;;;;;2.47;0.70;;;5.70;99.90;;;;;;5081867;28;21137;-81
2023/12/10 10:17:59;;;;;;;3.20;0.60;;;5.80;99.90;;;;;;5079538;28;20452;-81
2023/12/10 10:20:26;;;;;;;4.30;1.10;;;5.90;99.90;;;;;;5068330;28;20483;-81
2023/12/10 10:22:55;;;;;;;5.90;0.60;;;5.90;99.90;;;;;;5080794;28;20478;-81
2023/12/10 10:25:22;;;;;;;1.77;0.63;;;6.00;99.90;;;;;;5073965;28;21028;-81
2023/12/10 10:27:51;;;;;;;10.93;1.80;;;6.00;99.90;;;;;;5077724;28;20465;-80
2023/12/10 10:30:18;;;;;;;1.10;0.83;;;6.00;99.90;;;;;;5073236;28;20985;-80
2023/12/10 10:32:45;;;;;;;5.20;1.50;;;6.10;99.90;;;;;;5078596;28;20445;-82
2023/12/10 10:35:12;;;;;;;3.63;1.00;;;6.00;99.90;;;;;;5071311;28;20908;-82
2023/12/10 10:37:39;;;;;;;4.47;1.23;;;6.00;99.90;;;;;;5082884;28;20776;-82
2023/12/10 10:40:08;;;;;;;6.13;0.90;;;6.00;99.90;;;;;;5076079;28;20451;-82
2023/12/10 10:42:35;;;;;;;4.23;1.07;;;5.90;99.90;;;;;;5079951;28;20553;-82
2023/12/10 10:45:04;;;;;;;3.53;1.60;;;5.90;99.90;;;;;;5077404;28;20473;-81
2023/12/10 10:47:33;;;;;;;8.67;1.30;;;6.00;99.90;;;;;;5081462;28;20446;-81
2023/12/10 10:50:03;;;;;;;2.10;1.87;;;6.20;99.90;;;;;;5081671;28;20455;-82
2023/12/10 10:52:33;;;;;;;2.53;0.63;;;6.20;99.90;;;;;;5097567;28;20447;-81
2023/12/10 10:55:02;;;;;;;4.90;1.67;;;6.30;99.90;;;;;;5071590;28;20944;-81
2023/12/10 10:57:34;;;;;;;3.30;1.17;;;6.30;99.90;;;;;;5085202;28;20457;-82
2023/12/10 11:00:01;;;;;;;4.50;1.50;;;6.30;99.90;;;;;;5067169;28;20447;-82
2023/12/10 11:02:31;;;;;;;5.50;1.73;;;6.30;99.90;;;;;;5079378;28;20454;-82
2023/12/10 11:04:58;;;;;;;16.57;3.27;;;6.30;99.90;;;;;;5079709;28;20458;-82
2023/12/10 11:07:26;;;;;;;11.97;1.13;;;6.40;99.90;;;;;;5084821;28;20450;-82
2023/12/10 11:09:58;;;;;;;5.53;1.03;;;6.40;99.90;;;;;;5071182;28;20782;-82
2023/12/10 11:12:45;;;;;;;1.70;1.10;;;6.50;99.90;;;;;;5068424;28;20938;-82
2023/12/10 11:15:24;;;;;;;1.53;0.63;;;6.50;99.90;;;;;;5077910;28;20542;-82
2023/12/10 11:17:54;;;;;;;1.40;0.67;;;6.50;99.90;;;;;;5077693;28;21149;-82
2023/12/10 11:20:34;;;;;;;6.80;1.60;;;6.40;99.90;;;;;;5070442;28;21090;-82
2023/12/10 11:23:03;;;;;;;7.57;1.43;;;6.50;99.90;;;;;;5074931;28;20478;-82
2023/12/10 11:25:31;;;;;;;3.63;0.97;;;6.60;99.90;;;;;;5084145;28;20964;-82
2023/12/10 11:27:58;;;;;;;2.10;0.87;;;6.50;99.90;;;;;;5071191;28;20459;-82
2023/12/10 11:30:26;;;;;;;2.60;0.50;;;6.50;99.90;;;;;;5078966;28;20453;-82
2023/12/10 11:32:55;;;;;;;4.30;0.97;;;6.50;99.90;;;;;;5074260;28;20862;-82
2023/12/10 11:35:22;;;;;;;3.20;0.60;;;6.60;99.90;;;;;;5077170;28;20783;-82
2023/12/10 11:37:49;;;;;;;3.33;0.70;;;6.50;99.90;;;;;;5079038;28;20911;-82
2023/12/10 11:40:16;;;;;;;2.93;1.57;;;6.50;99.90;;;;;;5076488;28;20981;-82
2023/12/10 11:42:43;;;;;;;8.43;1.03;;;6.50;99.90;;;;;;5081362;28;20455;-82
2023/12/10 11:45:13;;;;;;;2.23;1.00;;;6.50;99.90;;;;;;5075668;28;20467;-82
2023/12/10 11:47:42;;;;;;;3.30;0.90;;;6.40;99.90;;;;;;5083053;28;20451;-81
2023/12/10 11:50:11;;;;;;;1.60;0.67;;;6.40;99.90;;;;;;5080252;28;20528;-81
2023/12/10 11:52:39;;;;;;;7.20;0.73;;;6.50;99.90;;;;;;5097716;28;20449;-81
2023/12/10 11:55:08;;;;;;;5.13;1.30;;;6.50;99.90;;;;;;5082127;28;20493;-81
2023/12/10 11:57:41;;;;;;;2.17;0.60;;;6.60;99.90;;;;;;5080676;28;20455;-81
2023/12/10 12:00:09;;;;;;;1.23;0.70;;;6.60;99.90;;;;;;5077192;28;20842;-81
2023/12/10 12:02:41;;;;;;;2.00;0.47;;;6.70;99.90;;;;;;5083616;28;20954;-81
2023/12/10 12:05:11;;;;;;;2.60;0.50;;;6.60;99.90;;;;;;5078997;28;20458;-81
2023/12/10 12:07:38;;;;;;;0.80;0.40;;;6.50;99.90;;;;;;5073207;28;20908;-81
2023/12/10 12:10:06;;;;;;;1.00;0.40;;;6.60;99.90;;;;;;5076224;28;20525;-81
2023/12/10 12:12:38;;;;;;;1.77;0.80;;;6.50;99.90;;;;;;5084894;28;20443;-81
2023/12/10 12:15:06;;;;;;;1.87;1.10;;;6.50;99.90;;;;;;5078372;28;20463;-81
2023/12/10 12:17:35;;;;;;;4.17;0.70;;;6.40;99.90;;;;;;5079871;28;20454;-81
2023/12/10 12:20:18;;;;;;;2.50;0.70;;;6.50;99.90;;;;;;5073973;28;20462;-82
2023/12/10 12:22:45;;;;;;;2.43;0.70;;;6.30;99.90;;;;;;5072490;28;20919;-81
2023/12/10 12:25:12;;;;;;;9.20;0.60;;;6.20;99.90;;;;;;5068737;28;20957;-81
2023/12/10 12:27:40;;;;;;;0.97;0.50;;;6.20;99.90;;;;;;5076754;28;20459;-81
2023/12/10 12:30:08;;;;;;;5.37;0.77;;;6.20;99.90;;;;;;5070870;28;20844;-81
2023/12/10 12:32:35;;;;;;;3.50;0.53;;;6.20;99.90;;;;;;5077494;28;20482;-81
2023/12/10 12:35:03;;;;;;;3.67;1.00;;;6.20;99.90;;;;;;5085549;28;20798;-81
2023/12/10 12:37:31;;;;;;;2.00;0.50;;;6.20;99.90;;;;;;5085896;28;20885;-82
2023/12/10 12:39:59;;;;;;;0.87;0.60;;;6.20;99.90;;;;;;5072009;28;20919;-83
2023/12/10 12:42:26;;;;;;;1.27;0.40;;;6.10;99.90;;;;;;5077710;28;20915;-82
2023/12/10 12:44:54;;;;;;;3.13;0.87;;;6.10;99.90;;;;;;5079707;28;20487;-82
2023/12/10 12:47:22;;;;;;;3.60;2.40;;;6.20;99.90;;;;;;5068548;28;20456;-82
2023/12/10 12:49:49;;;;;;;0.60;0.50;;;6.20;99.90;;;;;;5089795;28;20437;-82
2023/12/10 12:52:16;;;;;;;1.10;0.37;;;6.40;99.90;;;;;;5076296;28;20590;-83